Time;durP1;ratioP1;P1;durP2;ratioP2;P2;SDS_P1;SDS_P2;PMS_P1;PMS_P2;Temp;Humidity;BMP_temperature;BMP_pressure;BME280_temperature;BME280_humidity;BME280_pressure;Samples;Min_cycle;Max_cycle;Signal;HPM_P1;HPM_P2
2022/09/01 00:00:13;;;;;;;;;15.00;14.67;;;;;;;;6365321;22;45374;-91
2022/09/01 00:02:38;;;;;;;;;14.00;11.67;;;;;;;;6338332;22;45345;-90
2022/09/01 00:05:06;;;;;;;;;12.67;12.67;;;;;;;;6366970;22;45329;-91
2022/09/01 00:07:33;;;;;;;;;12.00;11.00;;;;;;;;6367116;22;45208;-91
2022/09/01 00:09:59;;;;;;;;;16.67;14.33;;;;;;;;6338469;22;45344;-91
2022/09/01 00:12:24;;;;;;;;;15.00;13.00;;;;;;;;6338692;22;45428;-91
2022/09/01 00:14:50;;;;;;;;;13.67;11.00;;;;;;;;6338126;22;46996;-91
2022/09/01 00:17:15;;;;;;;;;12.33;12.33;;;;;;;;6337817;22;45273;-91
2022/09/01 00:19:40;;;;;;;;;16.67;15.67;;;;;;;;6338299;22;45534;-91
2022/09/01 00:22:05;;;;;;;;;19.33;16.00;;;;;;;;6339179;22;45455;-90
2022/09/01 00:24:31;;;;;;;;;15.33;11.00;;;;;;;;6338143;22;47025;-91
2022/09/01 00:26:56;;;;;;;;;18.00;14.00;;;;;;;;6366714;22;45539;-91
2022/09/01 00:29:22;;;;;;;;;14.33;13.00;;;;;;;;6336995;22;45415;-91
2022/09/01 00:31:48;;;;;;;;;12.00;11.00;;;;;;;;6367893;22;45288;-92
2022/09/01 00:34:14;;;;;;;;;11.00;11.00;;;;;;;;6336135;22;47995;-91
2022/09/01 00:36:39;;;;;;;;;13.33;13.33;;;;;;;;6367757;22;45424;-91
2022/09/01 00:39:05;;;;;;;;;14.00;14.00;;;;;;;;6367117;22;45825;-91
2022/09/01 00:41:31;;;;;;;;;14.00;13.00;;;;;;;;6366601;22;45330;-90
2022/09/01 00:43:58;;;;;;;;;14.33;14.00;;;;;;;;6366560;22;46398;-91
2022/09/01 00:46:25;;;;;;;;;14.00;12.00;;;;;;;;6338548;22;45880;-91
2022/09/01 00:48:52;;;;;;;;;11.33;10.33;;;;;;;;6337996;22;45521;-91
2022/09/01 00:51:17;;;;;;;;;16.00;14.67;;;;;;;;6338684;22;45438;-91
2022/09/01 00:53:44;;;;;;;;;13.33;13.33;;;;;;;;6366216;22;46370;-91
2022/09/01 00:56:10;;;;;;;;;11.33;10.33;;;;;;;;6337593;22;45489;-91
2022/09/01 00:58:36;;;;;;;;;13.33;12.33;;;;;;;;6366482;22;45306;-91
2022/09/01 01:01:01;;;;;;;;;14.67;13.67;;;;;;;;6338808;22;45232;-91
2022/09/01 01:03:29;;;;;;;;;14.00;12.67;;;;;;;;6337240;22;47216;-90
2022/09/01 01:05:56;;;;;;;;;15.00;12.33;;;;;;;;6367554;22;45256;-90
2022/09/01 01:08:32;;;;;;;;;7.67;7.33;;;;;;;;6366875;22;45431;-91
2022/09/01 01:10:58;;;;;;;;;11.67;11.67;;;;;;;;6337254;22;45616;-91
2022/09/01 01:13:24;;;;;;;;;13.00;10.00;;;;;;;;6365572;22;46446;-91
2022/09/01 01:15:50;;;;;;;;;14.00;12.67;;;;;;;;6367448;22;45250;-91
2022/09/01 01:18:16;;;;;;;;;14.00;13.00;;;;;;;;6366356;22;45682;-91
2022/09/01 01:23:25;;;;;;;;;12.00;11.00;;;;;;;;6366047;22;45770;-91
2022/09/01 01:25:56;;;;;;;;;14.67;13.00;;;;;;;;6366220;22;45428;-90
2022/09/01 01:28:21;;;;;;;;;11.00;11.00;;;;;;;;6366866;22;45355;-91
2022/09/01 01:30:51;;;;;;;;;13.33;12.33;;;;;;;;6339019;22;45513;-91
2022/09/01 01:33:21;;;;;;;;;12.00;12.00;;;;;;;;6337511;22;47644;-91
2022/09/01 01:35:46;;;;;;;;;13.33;12.00;;;;;;;;6338396;22;45384;-92
2022/09/01 01:38:13;;;;;;;;;12.00;11.67;;;;;;;;6337879;22;45392;-91
2022/09/01 01:40:39;;;;;;;;;12.00;12.00;;;;;;;;6366627;22;45530;-91
2022/09/01 01:43:05;;;;;;;;;14.67;12.00;;;;;;;;6337854;22;47003;-91
2022/09/01 01:45:30;;;;;;;;;11.00;11.00;;;;;;;;6338643;22;45413;-91
2022/09/01 01:47:56;;;;;;;;;12.00;12.00;;;;;;;;6336898;22;45385;-91
2022/09/01 01:50:22;;;;;;;;;13.00;12.00;;;;;;;;6338228;22;45841;-91
2022/09/01 01:52:48;;;;;;;;;10.67;10.67;;;;;;;;6337174;22;47732;-91
2022/09/01 01:55:18;;;;;;;;;14.00;12.00;;;;;;;;6338098;22;45287;-91
2022/09/01 01:57:48;;;;;;;;;13.00;13.00;;;;;;;;6338110;22;45399;-91
2022/09/01 02:00:18;;;;;;;;;14.33;10.67;;;;;;;;6337886;22;45321;-91
2022/09/01 02:02:51;;;;;;;;;11.00;11.00;;;;;;;;6366892;22;45491;-91
2022/09/01 02:05:21;;;;;;;;;12.33;12.33;;;;;;;;6366729;22;45308;-91
2022/09/01 02:07:48;;;;;;;;;16.00;13.00;;;;;;;;6366380;22;45540;-91
2022/09/01 02:10:14;;;;;;;;;10.67;10.67;;;;;;;;6366742;22;45373;-91
2022/09/01 02:12:40;;;;;;;;;9.67;9.33;;;;;;;;6336906;22;47521;-90
2022/09/01 02:15:06;;;;;;;;;10.67;9.00;;;;;;;;6337135;22;45489;-91
2022/09/01 02:17:31;;;;;;;;;11.67;10.67;;;;;;;;6367004;22;45311;-91
2022/09/01 02:19:57;;;;;;;;;12.00;10.33;;;;;;;;6366360;22;45257;-91
2022/09/01 02:22:22;;;;;;;;;14.00;12.00;;;;;;;;6338496;22;48090;-91
2022/09/01 02:24:50;;;;;;;;;9.33;9.00;;;;;;;;6365294;22;45409;-90
2022/09/01 02:27:24;;;;;;;;;12.67;11.33;;;;;;;;6338233;22;45353;-91
2022/09/01 02:29:54;;;;;;;;;10.67;9.00;;;;;;;;6366273;22;45497;-91
2022/09/01 02:32:20;;;;;;;;;12.67;11.00;;;;;;;;6367092;22;45449;-90
2022/09/01 02:34:48;;;;;;;;;10.33;10.33;;;;;;;;6337473;22;45956;-91
2022/09/01 02:37:14;;;;;;;;;9.00;9.00;;;;;;;;6338356;22;45390;-91
2022/09/01 02:39:39;;;;;;;;;7.33;7.33;;;;;;;;6365582;22;45367;-91
2022/09/01 02:42:05;;;;;;;;;10.00;10.00;;;;;;;;6337866;22;48335;-91
2022/09/01 02:44:30;;;;;;;;;9.33;9.33;;;;;;;;6366416;22;45418;-91
2022/09/01 02:46:57;;;;;;;;;10.00;9.00;;;;;;;;6367288;22;45414;-91
2022/09/01 02:49:28;;;;;;;;;9.67;8.00;;;;;;;;6365749;22;45580;-91
2022/09/01 02:51:56;;;;;;;;;11.67;10.00;;;;;;;;6337313;22;48141;-91
2022/09/01 02:54:23;;;;;;;;;10.67;9.67;;;;;;;;6337985;22;45272;-90
2022/09/01 02:56:49;;;;;;;;;8.67;8.67;;;;;;;;6337709;22;45360;-91
2022/09/01 02:59:15;;;;;;;;;10.33;10.33;;;;;;;;6337623;22;45220;-91
2022/09/01 03:01:41;;;;;;;;;10.00;10.00;;;;;;;;6337986;22;47111;-92
2022/09/01 03:04:08;;;;;;;;;9.33;8.00;;;;;;;;6337461;22;45246;-90
2022/09/01 03:06:35;;;;;;;;;10.33;9.67;;;;;;;;6337826;22;45499;-90
2022/09/01 03:09:01;;;;;;;;;9.00;9.00;;;;;;;;6336997;22;45495;-90
2022/09/01 03:11:27;;;;;;;;;10.67;10.00;;;;;;;;6337517;22;47094;-91
2022/09/01 03:13:53;;;;;;;;;7.67;7.67;;;;;;;;6365799;22;45286;-90
2022/09/01 03:16:18;;;;;;;;;9.67;8.33;;;;;;;;6366892;22;45222;-90
2022/09/01 03:18:44;;;;;;;;;10.33;9.00;;;;;;;;6337136;22;45278;-90
2022/09/01 03:21:13;;;;;;;;;9.00;9.00;;;;;;;;6366325;22;45277;-90
2022/09/01 03:23:39;;;;;;;;;9.00;9.00;;;;;;;;6337421;22;45382;-90
2022/09/01 03:26:04;;;;;;;;;8.00;8.00;;;;;;;;6337127;22;45390;-91
2022/09/01 03:28:30;;;;;;;;;11.67;9.67;;;;;;;;6365557;22;45371;-91
2022/09/01 03:30:56;;;;;;;;;10.67;9.00;;;;;;;;6366299;22;45436;-91
2022/09/01 03:33:23;;;;;;;;;9.33;9.33;;;;;;;;6337104;22;45377;-91
2022/09/01 03:35:49;;;;;;;;;11.00;8.67;;;;;;;;6337647;22;45294;-91
2022/09/01 03:38:21;;;;;;;;;9.67;9.67;;;;;;;;6366315;22;45225;-91
2022/09/01 03:40:48;;;;;;;;;10.33;9.67;;;;;;;;6338434;22;47048;-91
2022/09/01 03:43:13;;;;;;;;;9.33;7.00;;;;;;;;6367423;22;45498;-90
2022/09/01 03:45:39;;;;;;;;;11.00;9.00;;;;;;;;6367943;22;45311;-91
2022/09/01 03:48:07;;;;;;;;;9.33;8.33;;;;;;;;6366861;22;45292;-90
2022/09/01 03:50:35;;;;;;;;;7.00;7.00;;;;;;;;6338461;22;47961;-91
2022/09/01 03:53:00;;;;;;;;;9.67;9.33;;;;;;;;6367503;22;45343;-90
2022/09/01 03:55:28;;;;;;;;;16.00;13.33;;;;;;;;6367915;22;45363;-90
2022/09/01 03:57:56;;;;;;;;;12.00;10.33;;;;;;;;6366908;22;45257;-90
2022/09/01 04:00:22;;;;;;;;;9.33;9.33;;;;;;;;6367071;22;46348;-91
2022/09/01 04:02:55;;;;;;;;;13.00;10.00;;;;;;;;6367373;22;45352;-91
2022/09/01 04:05:23;;;;;;;;;13.00;12.33;;;;;;;;6366317;22;45217;-91
2022/09/01 04:07:49;;;;;;;;;15.00;13.67;;;;;;;;6338546;22;45387;-91
2022/09/01 04:10:16;;;;;;;;;13.67;11.00;;;;;;;;6338626;22;47333;-91
2022/09/01 04:12:42;;;;;;;;;11.67;11.00;;;;;;;;6367093;22;45751;-91
2022/09/01 04:15:07;;;;;;;;;16.67;11.00;;;;;;;;6367160;22;45413;-90
2022/09/01 04:20:19;;;;;;;;;13.00;11.00;;;;;;;;6366314;22;45453;-90
2022/09/01 04:22:46;;;;;;;;;12.67;11.33;;;;;;;;6337995;22;45318;-90
2022/09/01 04:25:12;;;;;;;;;13.67;10.00;;;;;;;;6338686;22;45353;-91
2022/09/01 04:27:39;;;;;;;;;10.00;10.00;;;;;;;;6367373;22;45241;-91
2022/09/01 04:30:05;;;;;;;;;10.33;9.33;;;;;;;;6366898;22;45669;-91
2022/09/01 04:32:33;;;;;;;;;11.67;10.67;;;;;;;;6367513;22;45313;-90
2022/09/01 04:35:00;;;;;;;;;10.00;10.00;;;;;;;;6337532;22;45346;-91
2022/09/01 04:37:26;;;;;;;;;6.67;6.67;;;;;;;;6339237;22;45692;-91
2022/09/01 04:39:53;;;;;;;;;10.00;9.67;;;;;;;;6337802;22;48373;-91
2022/09/01 04:42:22;;;;;;;;;9.00;8.33;;;;;;;;6338621;22;45426;-91
2022/09/01 04:44:47;;;;;;;;;10.00;9.33;;;;;;;;6366558;22;45282;-91
2022/09/01 04:47:13;;;;;;;;;11.00;10.00;;;;;;;;6339426;22;45339;-91
2022/09/01 04:49:38;;;;;;;;;10.00;7.00;;;;;;;;6338027;22;46503;-91
2022/09/01 04:52:04;;;;;;;;;14.67;11.00;;;;;;;;6369315;22;45425;-91
2022/09/01 04:54:31;;;;;;;;;13.33;8.67;;;;;;;;6338762;22;45375;-91
2022/09/01 04:56:57;;;;;;;;;8.00;6.67;;;;;;;;6368425;22;45237;-90
2022/09/01 04:59:23;;;;;;;;;9.33;9.33;;;;;;;;6337245;22;48022;-91
2022/09/01 05:01:49;;;;;;;;;7.67;7.67;;;;;;;;6338890;22;45441;-91
2022/09/01 05:04:20;;;;;;;;;8.67;8.00;;;;;;;;6337908;22;45712;-91
2022/09/01 05:06:48;;;;;;;;;11.33;11.33;;;;;;;;6367520;22;45295;-91
2022/09/01 05:09:13;;;;;;;;;10.33;10.00;;;;;;;;6366134;22;46126;-90
2022/09/01 05:11:40;;;;;;;;;9.33;8.00;;;;;;;;6367130;22;45301;-91
2022/09/01 05:14:05;;;;;;;;;10.00;9.00;;;;;;;;6338202;22;45423;-91
2022/09/01 05:16:32;;;;;;;;;9.67;9.33;;;;;;;;6338916;22;45261;-90
2022/09/01 05:18:57;;;;;;;;;10.67;10.00;;;;;;;;6336880;22;48283;-91
2022/09/01 05:21:27;;;;;;;;;10.00;10.00;;;;;;;;6338966;22;45545;-88
2022/09/01 05:23:53;;;;;;;;;11.33;10.33;;;;;;;;6340445;22;45363;-91
2022/09/01 05:26:20;;;;;;;;;9.67;9.00;;;;;;;;6342807;22;45644;-91
2022/09/01 05:28:47;;;;;;;;;11.67;9.00;;;;;;;;6369543;22;45379;-91
2022/09/01 05:31:12;;;;;;;;;11.00;8.67;;;;;;;;6370008;22;45271;-91
2022/09/01 05:33:44;;;;;;;;;11.00;9.33;;;;;;;;6341136;22;45620;-90
2022/09/01 05:36:10;;;;;;;;;11.00;9.33;;;;;;;;6341754;22;45382;-91
2022/09/01 05:38:35;;;;;;;;;10.33;10.00;;;;;;;;6339664;22;47718;-91
2022/09/01 05:41:02;;;;;;;;;9.00;9.00;;;;;;;;6339864;22;45453;-91
2022/09/01 05:43:27;;;;;;;;;11.00;9.33;;;;;;;;6337820;22;45723;-91
2022/09/01 05:45:53;;;;;;;;;10.00;10.00;;;;;;;;6339118;22;45530;-91
2022/09/01 05:48:22;;;;;;;;;11.67;8.00;;;;;;;;6337931;22;48018;-91
2022/09/01 05:50:48;;;;;;;;;10.67;8.67;;;;;;;;6338709;22;45717;-91
2022/09/01 05:53:16;;;;;;;;;10.00;9.00;;;;;;;;6338017;22;45401;-91
2022/09/01 05:55:44;;;;;;;;;11.00;11.00;;;;;;;;6366166;22;45505;-90
2022/09/01 05:58:12;;;;;;;;;9.00;7.00;;;;;;;;6337632;22;48189;-91
2022/09/01 06:00:39;;;;;;;;;10.33;10.33;;;;;;;;6336707;22;46212;-91
2022/09/01 06:03:06;;;;;;;;;10.00;10.00;;;;;;;;6337672;22;45342;-90
2022/09/01 06:05:34;;;;;;;;;13.33;10.00;;;;;;;;6338201;22;45281;-91
2022/09/01 06:07:59;;;;;;;;;11.33;10.00;;;;;;;;6337718;22;47925;-90
2022/09/01 06:10:25;;;;;;;;;7.67;7.67;;;;;;;;6338264;22;45501;-91
2022/09/01 06:12:52;;;;;;;;;11.67;10.33;;;;;;;;6337984;22;45765;-91
2022/09/01 06:15:19;;;;;;;;;10.67;10.00;;;;;;;;6366365;22;45391;-90
2022/09/01 06:17:45;;;;;;;;;10.00;10.00;;;;;;;;6366966;22;45445;-91
2022/09/01 06:20:11;;;;;;;;;10.67;9.67;;;;;;;;6337522;22;45662;-91
2022/09/01 06:22:36;;;;;;;;;9.67;9.67;;;;;;;;6337863;22;45489;-86
2022/09/01 06:25:05;;;;;;;;;9.67;9.00;;;;;;;;6366773;22;45351;-85
2022/09/01 06:27:31;;;;;;;;;13.33;10.00;;;;;;;;6366163;22;45395;-88
2022/09/01 06:29:56;;;;;;;;;11.00;11.00;;;;;;;;6365408;22;45384;-85
2022/09/01 06:32:24;;;;;;;;;10.00;9.67;;;;;;;;6338703;22;45417;-85
2022/09/01 06:34:50;;;;;;;;;11.00;10.00;;;;;;;;6365651;22;45386;-87
2022/09/01 06:37:16;;;;;;;;;11.00;11.00;;;;;;;;6335995;22;46527;-86
2022/09/01 06:39:42;;;;;;;;;11.67;11.33;;;;;;;;6364715;22;45299;-86
2022/09/01 06:42:11;;;;;;;;;11.67;10.00;;;;;;;;6366285;22;45371;-89
2022/09/01 06:44:37;;;;;;;;;11.00;10.00;;;;;;;;6336367;22;45304;-88
2022/09/01 06:47:03;;;;;;;;;12.33;11.00;;;;;;;;6337755;22;47382;-88
2022/09/01 06:49:31;;;;;;;;;11.00;10.00;;;;;;;;6337085;22;45671;-88
2022/09/01 06:52:01;;;;;;;;;12.00;10.33;;;;;;;;6366437;22;45347;-89
2022/09/01 06:54:28;;;;;;;;;12.67;12.67;;;;;;;;6337551;22;45347;-89
2022/09/01 06:56:54;;;;;;;;;9.67;9.67;;;;;;;;6337486;22;48565;-88
2022/09/01 06:59:20;;;;;;;;;10.00;9.67;;;;;;;;6336363;22;45417;-89
2022/09/01 07:01:47;;;;;;;;;12.33;11.00;;;;;;;;6337352;22;45310;-88
2022/09/01 07:04:14;;;;;;;;;13.00;10.33;;;;;;;;6337567;22;45305;-89
2022/09/01 07:06:39;;;;;;;;;10.00;10.00;;;;;;;;6337106;22;47103;-88
2022/09/01 07:09:06;;;;;;;;;9.67;9.00;;;;;;;;6337001;22;45450;-88
2022/09/01 07:11:33;;;;;;;;;12.00;9.67;;;;;;;;6337463;22;45402;-88
2022/09/01 07:14:03;;;;;;;;;8.67;8.67;;;;;;;;6332711;22;45391;-88
2022/09/01 07:16:33;;;;;;;;;11.67;11.00;;;;;;;;6367363;22;45269;-89
2022/09/01 07:19:00;;;;;;;;;12.33;9.00;;;;;;;;6365820;22;45305;-89
2022/09/01 07:21:26;;;;;;;;;12.67;11.33;;;;;;;;6366557;22;45291;-89
2022/09/01 07:23:51;;;;;;;;;11.67;9.00;;;;;;;;6336731;22;45634;-89
2022/09/01 07:26:18;;;;;;;;;10.00;10.00;;;;;;;;6365965;22;45840;-90
2022/09/01 07:28:49;;;;;;;;;12.00;10.33;;;;;;;;6363850;22;45632;-89
2022/09/01 07:31:37;;;;;;;;;11.00;9.67;;;;;;;;6367369;22;45327;-89
2022/09/01 07:34:04;;;;;;;;;9.67;9.33;;;;;;;;6338374;22;45312;-88
2022/09/01 07:36:31;;;;;;;;;10.33;10.33;;;;;;;;6337791;22;47537;-88
2022/09/01 07:38:56;;;;;;;;;11.00;9.00;;;;;;;;6366792;22;45275;-89
2022/09/01 07:41:23;;;;;;;;;12.33;11.00;;;;;;;;6336958;22;45373;-88
2022/09/01 07:43:51;;;;;;;;;9.00;9.00;;;;;;;;6337285;22;45565;-89
2022/09/01 07:46:17;;;;;;;;;8.33;8.33;;;;;;;;6337993;22;47227;-89
2022/09/01 07:48:42;;;;;;;;;12.00;10.00;;;;;;;;6365878;22;45307;-88
2022/09/01 07:51:11;;;;;;;;;11.33;10.67;;;;;;;;6338412;22;45620;-89
2022/09/01 07:53:36;;;;;;;;;12.67;12.67;;;;;;;;6365480;22;45266;-88
2022/09/01 07:56:08;;;;;;;;;11.00;9.33;;;;;;;;6337660;22;47899;-89
2022/09/01 07:58:33;;;;;;;;;15.00;11.00;;;;;;;;6337861;22;45350;-89
2022/09/01 08:01:01;;;;;;;;;10.33;9.00;;;;;;;;6367570;22;45375;-88
2022/09/01 08:03:27;;;;;;;;;13.00;10.00;;;;;;;;6367154;22;45202;-90
2022/09/01 08:05:56;;;;;;;;;13.67;12.33;;;;;;;;6336987;22;48346;-89
2022/09/01 08:08:22;;;;;;;;;11.00;11.00;;;;;;;;6365721;22;45370;-89
2022/09/01 08:10:47;;;;;;;;;11.67;9.00;;;;;;;;6336975;22;45754;-89
2022/09/01 08:13:13;;;;;;;;;11.00;10.33;;;;;;;;6366600;22;45364;-89
2022/09/01 08:15:39;;;;;;;;;11.67;8.67;;;;;;;;6366177;22;46516;-89
2022/09/01 08:18:04;;;;;;;;;9.67;9.67;;;;;;;;6365631;22;45327;-88
2022/09/01 08:20:30;;;;;;;;;10.00;10.00;;;;;;;;6365890;22;45335;-89
2022/09/01 08:22:55;;;;;;;;;6.00;6.00;;;;;;;;6365988;22;45335;-89
2022/09/01 08:25:21;;;;;;;;;10.00;9.00;;;;;;;;6337419;22;47782;-90
2022/09/01 08:27:46;;;;;;;;;9.00;8.33;;;;;;;;6365857;22;45390;-89
2022/09/01 08:30:12;;;;;;;;;10.00;9.00;;;;;;;;6364483;22;45344;-89
2022/09/01 08:32:41;;;;;;;;;9.33;9.33;;;;;;;;6338095;22;45464;-89
2022/09/01 08:35:06;;;;;;;;;11.67;10.67;;;;;;;;6337514;22;46970;-90
2022/09/01 08:37:31;;;;;;;;;11.33;10.00;;;;;;;;6336827;22;45360;-90
2022/09/01 08:39:57;;;;;;;;;11.00;11.00;;;;;;;;6337609;22;45356;-89
2022/09/01 08:42:25;;;;;;;;;12.33;10.67;;;;;;;;6365125;22;45313;-90
2022/09/01 08:44:50;;;;;;;;;9.33;9.00;;;;;;;;6335902;22;48337;-90
2022/09/01 08:47:17;;;;;;;;;12.33;11.33;;;;;;;;6337229;22;45248;-89
2022/09/01 08:49:45;;;;;;;;;8.00;8.00;;;;;;;;6366182;22;45493;-90
2022/09/01 08:52:10;;;;;;;;;10.67;9.00;;;;;;;;6366238;22;45302;-90
2022/09/01 08:54:51;;;;;;;;;10.67;10.67;;;;;;;;6336008;22;47170;-90
2022/09/01 08:57:22;;;;;;;;;11.33;11.33;;;;;;;;6337587;22;45477;-90
2022/09/01 08:59:47;;;;;;;;;14.33;11.67;;;;;;;;6365944;22;45351;-91
2022/09/01 09:02:13;;;;;;;;;13.00;13.00;;;;;;;;6337622;22;45420;-90
2022/09/01 09:04:41;;;;;;;;;10.00;10.00;;;;;;;;6365561;22;45775;-90
2022/09/01 09:07:06;;;;;;;;;12.33;10.00;;;;;;;;6366471;22;45574;-91
2022/09/01 09:09:49;;;;;;;;;11.75;11.75;;;;;;;;6366281;22;45319;-90
2022/09/01 09:12:26;;;;;;;;;11.00;9.67;;;;;;;;6340502;22;45476;-91
2022/09/01 09:15:02;;;;;;;;;11.33;9.67;;;;;;;;6338108;22;48422;-91
2022/09/01 09:17:34;;;;;;;;;9.00;9.00;;;;;;;;6365489;22;45374;-90
2022/09/01 09:19:59;;;;;;;;;9.00;9.00;;;;;;;;6366009;22;45725;-91
2022/09/01 09:22:25;;;;;;;;;10.67;9.67;;;;;;;;6365866;22;45235;-90
2022/09/01 09:24:56;;;;;;;;;9.67;9.33;;;;;;;;6365098;22;45369;-90
2022/09/01 09:27:32;;;;;;;;;12.00;11.00;;;;;;;;6365191;22;45542;-91
2022/09/01 09:30:02;;;;;;;;;8.00;8.00;;;;;;;;6366095;22;45241;-90
2022/09/01 09:32:45;;;;;;;;;10.00;8.67;;;;;;;;6361961;22;45471;-90
2022/09/01 09:35:19;;;;;;;;;9.00;9.00;;;;;;;;6363502;22;45241;-90
2022/09/01 09:37:44;;;;;;;;;10.67;8.67;;;;;;;;6336433;22;45924;-91
2022/09/01 09:40:13;;;;;;;;;11.33;10.33;;;;;;;;6335867;22;45486;-92
2022/09/01 09:42:40;;;;;;;;;13.00;11.67;;;;;;;;6335777;22;45487;-91
2022/09/01 09:45:15;;;;;;;;;10.00;10.00;;;;;;;;6336012;22;48021;-91
2022/09/01 09:47:41;;;;;;;;;10.33;10.00;;;;;;;;6337060;22;45521;-92
2022/09/01 09:50:18;;;;;;;;;9.00;9.00;;;;;;;;6364909;22;45348;-92
2022/09/01 09:52:45;;;;;;;;;13.00;12.00;;;;;;;;6364417;22;45293;-91
2022/09/01 09:55:17;;;;;;;;;10.00;10.00;;;;;;;;6336445;22;47252;-91
2022/09/01 09:57:44;;;;;;;;;10.67;9.67;;;;;;;;6365574;22;45395;-92
2022/09/01 10:00:20;;;;;;;;;9.33;9.33;;;;;;;;6336865;22;45283;-91
2022/09/01 10:02:51;;;;;;;;;14.67;12.33;;;;;;;;6364951;22;45351;-92
2022/09/01 10:05:28;;;;;;;;;11.00;10.67;;;;;;;;6364166;22;46673;-91
2022/09/01 10:07:55;;;;;;;;;11.67;9.67;;;;;;;;6364533;22;45519;-91
2022/09/01 10:10:25;;;;;;;;;13.67;12.67;;;;;;;;6337188;22;45439;-92
2022/09/01 10:12:51;;;;;;;;;10.00;8.67;;;;;;;;6336006;22;45557;-92
2022/09/01 10:15:18;;;;;;;;;10.67;10.67;;;;;;;;6364735;22;45730;-93
2022/09/01 10:17:44;;;;;;;;;10.00;10.00;;;;;;;;6346118;22;45279;-95
2022/09/01 10:20:22;;;;;;;;;11.67;10.67;;;;;;;;6337082;22;45391;-89
2022/09/01 10:22:49;;;;;;;;;13.00;11.00;;;;;;;;6368716;22;45476;-94
2022/09/01 10:25:19;;;;;;;;;11.00;10.00;;;;;;;;6340469;22;47035;-92
2022/09/01 10:27:51;;;;;;;;;11.67;11.00;;;;;;;;6370341;22;45582;-90
2022/09/01 10:30:17;;;;;;;;;20.25;19.75;;;;;;;;6368988;22;45303;-94
2022/09/01 10:33:01;;;;;;;;;26.00;23.00;;;;;;;;6339619;22;45493;-92
2022/09/01 10:35:31;;;;;;;;;10.00;10.00;;;;;;;;6334758;22;47204;-89
2022/09/01 10:38:01;;;;;;;;;14.00;12.00;;;;;;;;6365855;22;45349;-89
2022/09/01 10:40:27;;;;;;;;;11.00;11.00;;;;;;;;6366761;22;45433;-89
2022/09/01 10:42:55;;;;;;;;;13.67;11.33;;;;;;;;6363961;22;45280;-90
2022/09/01 10:45:30;;;;;;;;;9.67;9.67;;;;;;;;6336753;22;47340;-89
2022/09/01 10:47:55;;;;;;;;;13.00;12.33;;;;;;;;6365081;22;45385;-90
2022/09/01 10:50:31;;;;;;;;;12.00;10.67;;;;;;;;6364586;22;45335;-89
2022/09/01 10:53:01;;;;;;;;;9.00;8.67;;;;;;;;6365072;22;45548;-87
2022/09/01 10:55:46;;;;;;;;;13.67;11.33;;;;;;;;6365392;22;45298;-91
2022/09/01 10:58:23;;;;;;;;;14.00;12.00;;;;;;;;6364283;22;45639;-88
2022/09/01 11:00:49;;;;;;;;;12.00;10.00;;;;;;;;6364002;22;45736;-86
2022/09/01 11:03:17;;;;;;;;;11.00;9.67;;;;;;;;6364105;22;45286;-87
2022/09/01 11:05:52;;;;;;;;;9.00;8.67;;;;;;;;6335454;22;47220;-87
2022/09/01 11:08:21;;;;;;;;;9.67;9.33;;;;;;;;6336052;22;45324;-88
2022/09/01 11:10:52;;;;;;;;;9.67;9.00;;;;;;;;6335895;22;45465;-88
2022/09/01 11:13:20;;;;;;;;;8.67;8.00;;;;;;;;6364583;22;45386;-87
2022/09/01 11:15:47;;;;;;;;;9.00;8.00;;;;;;;;6365044;22;46238;-87
2022/09/01 11:18:26;;;;;;;;;11.33;11.33;;;;;;;;6335863;22;45395;-87
2022/09/01 11:20:51;;;;;;;;;10.67;9.33;;;;;;;;6335833;22;45478;-88
2022/09/01 11:23:23;;;;;;;;;9.00;8.67;;;;;;;;6364259;22;45409;-87
2022/09/01 11:25:49;;;;;;;;;12.67;11.00;;;;;;;;6335887;22;48287;-87
2022/09/01 11:28:15;;;;;;;;;7.33;7.00;;;;;;;;6364516;22;45416;-87
2022/09/01 11:30:51;;;;;;;;;6.00;6.00;;;;;;;;6336438;22;45208;-87
2022/09/01 11:33:32;;;;;;;;;7.67;7.67;;;;;;;;6364055;22;45368;-87
2022/09/01 11:36:02;;;;;;;;;10.00;7.33;;;;;;;;6364195;22;45295;-87
2022/09/01 11:38:30;;;;;;;;;8.00;7.00;;;;;;;;6335070;22;45367;-87
2022/09/01 11:40:56;;;;;;;;;5.67;5.67;;;;;;;;6363636;22;45553;-87
2022/09/01 11:43:22;;;;;;;;;6.00;6.00;;;;;;;;6364197;22;45265;-87
2022/09/01 11:45:56;;;;;;;;;7.33;6.00;;;;;;;;6364789;22;46093;-87
2022/09/01 11:48:23;;;;;;;;;7.33;7.33;;;;;;;;6334896;22;45394;-87
2022/09/01 11:50:56;;;;;;;;;7.33;7.00;;;;;;;;6364681;22;45304;-88
2022/09/01 11:53:22;;;;;;;;;5.00;5.00;;;;;;;;6363591;22;45413;-87
2022/09/01 11:55:49;;;;;;;;;7.33;6.67;;;;;;;;6358274;22;45338;-86
2022/09/01 11:58:41;;;;;;;;;6.00;6.00;;;;;;;;6363841;22;45410;-86
2022/09/01 12:01:18;;;;;;;;;6.00;4.67;;;;;;;;6333234;22;45328;-85
2022/09/01 12:03:45;;;;;;;;;5.00;5.00;;;;;;;;6336573;22;45510;-86
2022/09/01 12:06:16;;;;;;;;;7.00;6.00;;;;;;;;6366455;22;45435;-86
2022/09/01 12:08:50;;;;;;;;;8.33;8.33;;;;;;;;6335336;22;46202;-86
2022/09/01 12:11:20;;;;;;;;;5.67;5.67;;;;;;;;6336950;22;45388;-87
2022/09/01 12:14:00;;;;;;;;;6.00;5.00;;;;;;;;6364412;22;45328;-86
2022/09/01 12:16:26;;;;;;;;;4.00;4.00;;;;;;;;6363215;22;46251;-87
2022/09/01 12:18:53;;;;;;;;;5.33;5.33;;;;;;;;6336651;22;45444;-85
2022/09/01 12:21:30;;;;;;;;;5.67;5.67;;;;;;;;6366219;22;45701;-86
2022/09/01 12:24:14;;;;;;;;;5.00;5.00;;;;;;;;6336350;22;45261;-86
2022/09/01 12:26:40;;;;;;;;;4.00;4.00;;;;;;;;6364933;22;45352;-87
2022/09/01 12:29:05;;;;;;;;;4.33;4.33;;;;;;;;6336228;22;45701;-86
2022/09/01 12:31:31;;;;;;;;;6.00;5.00;;;;;;;;6366203;22;45505;-87
2022/09/01 12:33:56;;;;;;;;;7.00;6.00;;;;;;;;6364097;22;45289;-87
2022/09/01 12:36:30;;;;;;;;;5.00;4.00;;;;;;;;6337801;22;47153;-86
2022/09/01 12:39:14;;;;;;;;;6.00;6.00;;;;;;;;6364931;22;45395;-87
2022/09/01 12:41:39;;;;;;;;;5.00;5.00;;;;;;;;6365259;22;45261;-87
2022/09/01 12:44:23;;;;;;;;;3.33;3.33;;;;;;;;6334912;22;45337;-87
2022/09/01 12:46:48;;;;;;;;;5.00;5.00;;;;;;;;6365420;22;45473;-87
2022/09/01 12:49:18;;;;;;;;;7.00;6.00;;;;;;;;6364245;22;45672;-85
2022/09/01 12:51:46;;;;;;;;;5.67;4.00;;;;;;;;6337296;22;45347;-86
2022/09/01 12:54:11;;;;;;;;;3.33;3.33;;;;;;;;6335860;22;45769;-86
2022/09/01 12:56:38;;;;;;;;;3.00;3.00;;;;;;;;6335878;22;48520;-86
2022/09/01 12:59:23;;;;;;;;;5.33;5.33;;;;;;;;6359947;22;45391;-86
2022/09/01 13:01:48;;;;;;;;;4.00;4.00;;;;;;;;6336879;22;45360;-87
2022/09/01 13:04:21;;;;;;;;;3.00;3.00;;;;;;;;6335322;22;45343;-86
2022/09/01 13:06:47;;;;;;;;;5.00;5.00;;;;;;;;6365137;22;47230;-87
2022/09/01 13:09:12;;;;;;;;;5.00;5.00;;;;;;;;6336102;22;45315;-86
2022/09/01 13:11:37;;;;;;;;;4.67;4.67;;;;;;;;6365574;22;45342;-86
2022/09/01 13:14:02;;;;;;;;;3.67;3.00;;;;;;;;6364778;22;45299;-87
2022/09/01 13:16:27;;;;;;;;;2.00;2.00;;;;;;;;6363865;22;45761;-86
2022/09/01 13:18:53;;;;;;;;;6.00;5.00;;;;;;;;6360994;22;45424;-87
2022/09/01 13:21:18;;;;;;;;;3.50;3.00;;;;;;;;6337964;22;45338;-86
2022/09/01 13:23:45;;;;;;;;;6.00;6.00;;;;;;;;6364917;22;45303;-86
2022/09/01 13:26:10;;;;;;;;;6.00;6.00;;;;;;;;6336809;22;48312;-87
2022/09/01 13:28:35;;;;;;;;;4.67;4.00;;;;;;;;6335512;22;45304;-87
2022/09/01 13:31:05;;;;;;;;;3.33;3.33;;;;;;;;6364651;22;45309;-85
2022/09/01 13:33:31;;;;;;;;;5.00;5.00;;;;;;;;6334870;22;45416;-86
2022/09/01 13:35:57;;;;;;;;;4.67;4.67;;;;;;;;6336489;22;47244;-86
2022/09/01 13:38:22;;;;;;;;;6.33;6.33;;;;;;;;6364807;22;45351;-86
2022/09/01 13:40:48;;;;;;;;;3.67;3.67;;;;;;;;6364651;22;45674;-86
2022/09/01 13:43:14;;;;;;;;;6.00;5.33;;;;;;;;6364504;22;45499;-89
2022/09/01 13:45:39;;;;;;;;;5.67;5.67;;;;;;;;6335787;22;48363;-88
2022/09/01 13:48:05;;;;;;;;;5.33;5.33;;;;;;;;6336240;22;45464;-88
2022/09/01 13:50:30;;;;;;;;;5.00;5.00;;;;;;;;6337023;22;45716;-89
2022/09/01 13:52:56;;;;;;;;;4.00;4.00;;;;;;;;6335766;22;45658;-88
2022/09/01 13:55:22;;;;;;;;;5.00;5.00;;;;;;;;6364253;22;46131;-89
2022/09/01 13:57:47;;;;;;;;;5.00;5.00;;;;;;;;6335229;22;46055;-89
2022/09/01 14:00:15;;;;;;;;;5.00;5.00;;;;;;;;6363591;22;45307;-85
2022/09/01 14:02:47;;;;;;;;;5.00;4.67;;;;;;;;6365309;22;45354;-89
2022/09/01 14:05:13;;;;;;;;;9.00;8.00;;;;;;;;6335480;22;48469;-89
2022/09/01 14:07:38;;;;;;;;;7.33;6.67;;;;;;;;6335892;22;45421;-86
2022/09/01 14:10:03;;;;;;;;;4.00;4.00;;;;;;;;6337037;22;45339;-89
2022/09/01 14:12:32;;;;;;;;;7.00;6.33;;;;;;;;6337324;22;45352;-94
2022/09/01 14:14:57;;;;;;;;;4.67;4.67;;;;;;;;6365193;22;46439;-91
2022/09/01 14:17:22;;;;;;;;;6.67;6.67;;;;;;;;6335784;22;45645;-91
2022/09/01 14:19:48;;;;;;;;;5.67;4.67;;;;;;;;6338578;22;45299;-91
2022/09/01 14:22:13;;;;;;;;;6.00;4.00;;;;;;;;6335745;22;45466;-91
2022/09/01 14:24:39;;;;;;;;;5.00;5.00;;;;;;;;6335416;22;47226;-91
2022/09/01 14:27:04;;;;;;;;;6.00;6.00;;;;;;;;6336262;22;45811;-92
2022/09/01 14:29:29;;;;;;;;;6.00;6.00;;;;;;;;6333233;22;45323;-92
2022/09/01 14:31:56;;;;;;;;;5.33;5.33;;;;;;;;6336060;22;45810;-91
2022/09/01 14:34:23;;;;;;;;;4.67;4.67;;;;;;;;6361427;22;46533;-90
2022/09/01 14:36:48;;;;;;;;;6.00;6.00;;;;;;;;6363578;22;45371;-91